createdAt,value
2019-02-02T00:02:02.045Z,49.80
2019-02-02T00:04:34.536Z,53.57
2019-02-02T00:07:03.929Z,51.60
2019-02-02T00:09:33.569Z,49.80
2019-02-02T00:12:04.173Z,55.23
2019-02-02T00:14:37.648Z,51.05
2019-02-02T00:17:07.394Z,49.57
2019-02-02T00:19:41.122Z,53.47
2019-02-02T00:22:11.095Z,51.63
2019-02-02T00:24:41.195Z,47.43
2019-02-02T00:27:10.654Z,52.17
2019-02-02T00:29:44.627Z,50.30
2019-02-02T00:32:14.059Z,49.10
2019-02-02T00:34:43.968Z,53.57
2019-02-02T00:37:14.858Z,47.73
2019-02-02T00:39:44.224Z,52.73
2019-02-02T00:42:13.664Z,47.83
2019-02-02T00:44:43.665Z,50.85
2019-02-02T00:47:21.292Z,47.17
2019-02-02T00:49:52.460Z,44.93
2019-02-02T00:52:24.333Z,58.80
2019-02-02T00:54:53.685Z,53.37
2019-02-02T00:57:25.550Z,49.15
2019-02-02T00:59:57.091Z,51.43
2019-02-02T01:02:30.297Z,46.93
2019-02-02T01:05:04.075Z,55.53
2019-02-02T01:07:35.462Z,53.70
2019-02-02T01:10:09.397Z,48.90
2019-02-02T01:12:38.745Z,48.20
2019-02-02T01:15:09.093Z,52.27
2019-02-02T01:17:38.624Z,49.90
2019-02-02T01:20:10.262Z,49.63
2019-02-02T01:22:39.661Z,50.47
2019-02-02T01:25:14.482Z,48.73
2019-02-02T01:27:44.534Z,45.50
2019-02-02T01:30:15.093Z,53.60
2019-02-02T01:32:44.488Z,48.70
2019-02-02T01:35:16.313Z,60.63
2019-02-02T01:37:46.734Z,49.07
2019-02-02T01:40:19.960Z,49.50
2019-02-02T01:42:51.444Z,43.27
2019-02-02T01:45:24.141Z,47.10
2019-02-02T01:47:53.652Z,45.60
2019-02-02T01:50:28.936Z,50.77
2019-02-02T01:53:00.489Z,45.83
2019-02-02T01:55:30.855Z,53.40
2019-02-02T01:58:00.612Z,50.17
2019-02-02T02:00:31.633Z,50.55
2019-02-02T02:03:01.921Z,44.07
2019-02-02T02:05:31.754Z,53.73
2019-02-02T02:08:01.161Z,47.88
2019-02-02T02:10:31.887Z,49.40
2019-02-02T02:13:01.247Z,46.77
2019-02-02T02:15:31.200Z,51.80
2019-02-02T02:18:05.540Z,46.73
2019-02-02T02:20:35.609Z,48.13
2019-02-02T02:23:05.308Z,50.90
2019-02-02T02:25:34.825Z,50.92
2019-02-02T02:28:05.523Z,47.23
2019-02-02T02:30:34.926Z,48.68
2019-02-02T02:33:05.977Z,48.87
2019-02-02T02:35:35.591Z,54.13
2019-02-02T02:38:04.948Z,47.43
2019-02-02T02:40:34.949Z,49.58
2019-02-02T02:43:06.022Z,52.23
2019-02-02T02:45:35.701Z,51.93
2019-02-02T02:48:05.610Z,56.28
2019-02-02T02:50:35.087Z,44.63
2019-02-02T02:53:05.245Z,50.07
2019-02-02T02:55:34.593Z,54.00
2019-02-02T02:58:07.284Z,43.07
2019-02-02T03:00:37.054Z,45.53
2019-02-02T03:03:07.639Z,48.97
2019-02-02T03:05:40.972Z,50.95
2019-02-02T03:08:11.634Z,45.37
2019-02-02T03:10:41.917Z,51.43
2019-02-02T03:13:13.162Z,47.10
2019-02-02T03:15:42.586Z,43.10
2019-02-02T03:18:13.750Z,47.63
2019-02-02T03:20:43.281Z,47.90
2019-02-02T03:23:12.664Z,46.37
2019-02-02T03:25:42.063Z,46.10
2019-02-02T03:28:12.446Z,43.90
2019-02-02T03:30:41.908Z,50.30
2019-02-02T03:33:12.319Z,41.53
2019-02-02T03:35:43.844Z,43.70
2019-02-02T03:38:15.641Z,45.75
2019-02-02T03:40:45.020Z,45.27
2019-02-02T03:43:15.368Z,46.90
2019-02-02T03:45:45.076Z,43.27
2019-02-02T03:48:18.147Z,44.00
2019-02-02T03:50:47.956Z,43.80
2019-02-02T03:53:18.077Z,48.23
2019-02-02T03:55:47.827Z,37.40
2019-02-02T03:58:18.284Z,43.30
2019-02-02T04:00:47.681Z,48.67
2019-02-02T04:03:19.300Z,41.18
2019-02-02T04:05:51.536Z,39.47
2019-02-02T04:08:21.894Z,45.80
2019-02-02T04:10:51.313Z,43.53
2019-02-02T04:13:20.741Z,40.67
2019-02-02T04:15:53.859Z,41.18
2019-02-02T04:18:23.448Z,42.77
2019-02-02T04:20:52.947Z,41.50
2019-02-02T04:23:23.103Z,41.70
2019-02-02T04:25:52.420Z,39.00
2019-02-02T04:28:21.861Z,44.90
2019-02-02T04:30:56.001Z,41.87
2019-02-02T04:33:26.204Z,49.70
2019-02-02T04:36:15.551Z,46.93
2019-02-02T04:38:48.035Z,51.40
2019-02-02T04:41:18.389Z,54.00
2019-02-02T04:43:48.599Z,46.40
2019-02-02T04:46:18.428Z,44.53
2019-02-02T04:48:49.064Z,43.17
2019-02-02T04:51:19.232Z,47.00
2019-02-02T04:53:48.576Z,44.97
2019-02-02T04:56:18.547Z,41.70
2019-02-02T04:58:48.313Z,49.10
2019-02-02T05:01:18.433Z,44.60
2019-02-02T05:03:48.778Z,48.80
2019-02-02T05:06:24.581Z,51.98
2019-02-02T05:08:54.945Z,47.50
2019-02-02T05:11:25.282Z,50.15
2019-02-02T05:13:54.824Z,52.27
2019-02-02T05:16:26.959Z,57.08
2019-02-02T05:18:56.648Z,53.90
2019-02-02T05:21:27.884Z,48.37
2019-02-02T05:23:57.281Z,44.07
2019-02-02T05:26:33.738Z,55.43
2019-02-02T05:29:03.325Z,60.60
2019-02-02T05:31:34.484Z,54.80
2019-02-02T05:34:05.254Z,51.30
2019-02-02T05:36:36.509Z,55.85
2019-02-02T05:39:09.198Z,60.60
2019-02-02T05:41:38.560Z,64.73
2019-02-02T05:44:09.311Z,79.67
2019-02-02T05:46:39.328Z,62.67
2019-02-02T05:49:09.559Z,60.20
2019-02-02T05:51:39.696Z,71.97
2019-02-02T05:54:09.549Z,63.00
2019-02-02T05:56:40.230Z,63.80
2019-02-02T05:59:10.423Z,65.47
2019-02-02T06:01:40.655Z,59.53
2019-02-02T06:04:10.089Z,55.73
2019-02-02T06:06:39.685Z,59.23
2019-02-02T06:09:09.884Z,57.90
2019-02-02T06:11:39.416Z,55.93
2019-02-02T06:14:09.860Z,57.53
2019-02-02T06:16:39.244Z,56.90
2019-02-02T06:19:09.260Z,61.37
2019-02-02T06:21:38.773Z,65.00
2019-02-02T06:24:08.199Z,60.25
2019-02-02T06:26:37.624Z,58.77
2019-02-02T06:29:07.505Z,63.03
2019-02-02T06:31:37.536Z,65.93
2019-02-02T06:34:08.749Z,55.70
2019-02-02T06:36:40.870Z,55.20
2019-02-02T06:39:11.152Z,53.67
2019-02-02T06:41:42.094Z,57.90
2019-02-02T06:44:11.523Z,63.30
2019-02-02T06:46:43.749Z,58.43
2019-02-02T06:49:12.696Z,60.20
2019-02-02T06:51:42.580Z,67.43
2019-02-02T06:54:12.265Z,77.60
2019-02-02T06:56:42.240Z,66.70
2019-02-02T06:59:11.637Z,60.80
2019-02-02T07:01:41.133Z,61.63
2019-02-02T07:04:10.669Z,61.63
2019-02-02T07:06:40.316Z,64.62
2019-02-02T07:09:10.497Z,61.93
2019-02-02T07:11:40.158Z,65.13
2019-02-02T07:14:10.067Z,57.37
2019-02-02T07:16:40.771Z,55.10
2019-02-02T07:19:11.872Z,63.93
2019-02-02T07:21:41.346Z,61.57
2019-02-02T07:24:12.189Z,59.80
2019-02-02T07:26:42.446Z,62.77
2019-02-02T07:29:14.705Z,64.80
2019-02-02T07:31:44.721Z,60.33
2019-02-02T07:34:15.113Z,61.10
2019-02-02T07:36:45.708Z,70.30
2019-02-02T07:39:20.576Z,69.55
2019-02-02T07:41:50.375Z,65.63
2019-02-02T07:44:21.266Z,69.20
2019-02-02T07:46:51.811Z,73.50
2019-02-02T07:49:21.436Z,68.92
2019-02-02T07:51:50.921Z,56.20
2019-02-02T07:54:20.891Z,64.77
2019-02-02T07:56:53.553Z,57.07
2019-02-02T07:59:24.961Z,62.53
2019-02-02T08:01:55.362Z,60.73
2019-02-02T08:04:28.723Z,66.80
2019-02-02T08:06:58.084Z,64.77
2019-02-02T08:09:29.722Z,60.30
2019-02-02T08:11:59.421Z,77.35
2019-02-02T08:14:29.718Z,70.40
2019-02-02T08:16:59.181Z,58.20
2019-02-02T08:19:34.666Z,61.00
2019-02-02T08:22:04.652Z,68.85
2019-02-02T08:24:38.566Z,62.33
2019-02-02T08:27:07.066Z,71.10
2019-02-02T08:29:36.897Z,66.95
2019-02-02T08:32:07.111Z,59.93
2019-02-02T08:34:36.421Z,63.70
2019-02-02T08:37:05.978Z,68.73
2019-02-02T08:39:38.690Z,58.10
2019-02-02T08:42:09.875Z,52.43
2019-02-02T08:44:39.859Z,55.93
2019-02-02T08:47:09.921Z,48.77
2019-02-02T08:49:40.490Z,51.77
2019-02-02T08:52:10.535Z,65.47
2019-02-02T08:54:40.429Z,58.00
2019-02-02T08:57:10.309Z,55.23
2019-02-02T08:59:40.728Z,55.13
2019-02-02T09:02:11.020Z,51.27
2019-02-02T09:04:40.511Z,56.70
2019-02-02T09:07:11.104Z,65.60
2019-02-02T09:09:41.186Z,49.23
2019-02-02T09:12:10.535Z,51.90
2019-02-02T09:14:39.956Z,53.60
2019-02-02T09:17:10.200Z,50.73
2019-02-02T09:19:40.084Z,51.70
2019-02-02T09:22:12.233Z,50.50
2019-02-02T09:24:41.949Z,41.70
2019-02-02T09:27:11.430Z,39.47
2019-02-02T09:29:42.328Z,37.70
2019-02-02T09:32:11.937Z,35.43
2019-02-02T09:34:42.266Z,28.87
2019-02-02T09:37:12.791Z,29.40
2019-02-02T09:39:42.172Z,26.00
2019-02-02T09:42:12.276Z,24.00
2019-02-02T09:44:42.284Z,26.73
2019-02-02T09:47:13.358Z,23.77
2019-02-02T09:49:43.433Z,20.83
2019-02-02T09:52:12.905Z,24.10
2019-02-02T09:54:42.274Z,17.77
2019-02-02T09:57:12.111Z,23.30
2019-02-02T09:59:41.644Z,17.47
2019-02-02T10:02:11.482Z,18.70
2019-02-02T10:04:41.672Z,19.07
2019-02-02T10:07:12.736Z,20.10
2019-02-02T10:09:42.056Z,12.18
2019-02-02T10:12:12.651Z,14.70
2019-02-02T10:14:42.759Z,19.43
2019-02-02T10:17:12.125Z,10.60
2019-02-02T10:19:42.181Z,10.80
2019-02-02T10:22:12.182Z,13.37
2019-02-02T10:24:41.965Z,9.63
2019-02-02T10:27:11.353Z,10.83
2019-02-02T10:29:41.125Z,12.87
2019-02-02T10:32:10.722Z,11.30
2019-02-02T10:34:47.397Z,20.02
2019-02-02T10:37:18.065Z,8.43
2019-02-02T10:39:47.509Z,10.37
2019-02-02T10:42:18.979Z,11.00
2019-02-02T10:44:49.191Z,12.53
2019-02-02T10:47:19.141Z,10.30
2019-02-02T10:49:48.490Z,8.03
2019-02-02T10:52:18.181Z,10.72
2019-02-02T10:54:48.860Z,9.20
2019-02-02T10:57:18.693Z,7.70
2019-02-02T10:59:49.052Z,11.97
2019-02-02T11:02:18.910Z,8.27
2019-02-02T11:04:53.442Z,8.20
2019-02-02T11:07:21.253Z,7.37
2019-02-02T11:09:50.584Z,8.20
2019-02-02T11:12:20.568Z,10.40
2019-02-02T11:14:50.713Z,11.90
2019-02-02T11:17:21.624Z,9.80
2019-02-02T11:19:51.693Z,8.50
2019-02-02T11:22:22.873Z,9.80
2019-02-02T11:24:52.423Z,9.33
2019-02-02T11:27:22.580Z,9.43
2019-02-02T11:29:52.594Z,8.83
2019-02-02T11:32:23.025Z,16.35
2019-02-02T11:34:53.520Z,9.63
2019-02-02T11:37:24.432Z,10.60
2019-02-02T11:39:55.068Z,13.33
2019-02-02T11:42:24.941Z,13.90
2019-02-02T11:44:59.069Z,11.60
2019-02-02T11:47:29.468Z,13.40
2019-02-02T11:49:58.843Z,10.60
2019-02-02T11:52:28.416Z,10.70
2019-02-02T11:54:58.285Z,16.00
2019-02-02T11:57:34.086Z,16.70
2019-02-02T12:00:05.578Z,13.30
2019-02-02T12:02:35.229Z,12.20
2019-02-02T12:05:05.738Z,14.43
2019-02-02T12:07:35.494Z,13.53
2019-02-02T12:10:10.038Z,13.07
2019-02-02T12:12:42.103Z,10.07
2019-02-02T12:15:14.981Z,11.10
2019-02-02T12:17:44.343Z,14.93
2019-02-02T12:20:16.122Z,13.03
2019-02-02T12:22:45.824Z,13.50
2019-02-02T12:25:16.904Z,8.38
2019-02-02T12:27:48.029Z,10.43
2019-02-02T12:30:20.746Z,18.40
2019-02-02T12:32:50.126Z,10.03
2019-02-02T12:35:21.612Z,9.10
2019-02-02T12:47:34.800Z,16.20
2019-02-02T12:50:05.124Z,29.90
2019-02-02T12:52:34.525Z,14.70
2019-02-02T12:55:06.309Z,12.40
2019-02-02T12:57:35.704Z,8.30
2019-02-02T13:00:07.122Z,8.88
2019-02-02T13:02:38.506Z,7.17
2019-02-02T13:05:09.041Z,7.77
2019-02-02T13:07:40.692Z,8.43
2019-02-02T13:10:15.029Z,8.33
2019-02-02T13:12:44.764Z,9.43
2019-02-02T13:15:17.902Z,11.05
2019-02-02T13:17:47.856Z,9.93
2019-02-02T13:20:18.113Z,9.68
2019-02-02T13:22:47.732Z,9.23
2019-02-02T13:25:19.770Z,10.92
2019-02-02T13:27:49.140Z,11.37
2019-02-02T13:30:24.487Z,8.15
2019-02-02T13:32:54.735Z,10.13
2019-02-02T13:35:24.460Z,10.40
2019-02-02T13:37:54.599Z,9.23
2019-02-02T13:40:24.744Z,12.30
2019-02-02T13:42:54.490Z,11.83
2019-02-02T13:45:24.193Z,11.17
2019-02-02T13:47:54.221Z,12.23
2019-02-02T13:50:23.809Z,9.83
2019-02-02T13:52:57.099Z,10.23
2019-02-02T13:55:27.894Z,9.80
2019-02-02T13:57:57.832Z,8.63
2019-02-02T14:00:29.992Z,7.83
2019-02-02T14:03:03.242Z,8.80
2019-02-02T14:05:30.833Z,19.17
2019-02-02T14:08:00.462Z,11.20
2019-02-02T14:10:31.237Z,12.43
2019-02-02T14:13:00.721Z,17.77
2019-02-02T14:15:30.104Z,12.20
2019-02-02T14:18:01.270Z,16.03
2019-02-02T14:20:31.179Z,12.65
2019-02-02T14:23:01.782Z,12.50
2019-02-02T14:25:31.396Z,12.10
2019-02-02T14:28:00.797Z,11.97
2019-02-02T14:30:30.169Z,9.73
2019-02-02T14:33:00.168Z,10.70
2019-02-02T14:35:36.829Z,9.78
2019-02-02T14:38:06.713Z,9.10
2019-02-02T14:40:36.577Z,9.55
2019-02-02T14:43:06.317Z,13.20
2019-02-02T14:45:35.708Z,11.80
2019-02-02T14:48:06.328Z,10.93
2019-02-02T14:50:36.091Z,11.05
2019-02-02T14:53:07.280Z,10.63
2019-02-02T14:55:38.465Z,10.37
2019-02-02T14:58:08.275Z,10.03
2019-02-02T15:00:37.682Z,11.45
2019-02-02T15:03:07.607Z,10.43
2019-02-02T15:05:43.016Z,10.37
2019-02-02T15:08:08.573Z,10.57
2019-02-02T15:10:38.534Z,10.40
2019-02-02T15:13:07.867Z,12.13
2019-02-02T15:15:37.249Z,17.60
2019-02-02T15:18:06.867Z,13.33
2019-02-02T15:20:41.245Z,19.23
2019-02-02T15:23:10.703Z,15.23
2019-02-02T15:25:40.717Z,19.25
2019-02-02T15:28:11.127Z,15.85
2019-02-02T15:30:46.415Z,13.20
2019-02-02T15:33:21.621Z,14.33
2019-02-02T15:35:51.306Z,13.83
2019-02-02T15:38:21.936Z,12.93
2019-02-02T15:40:58.846Z,15.30
2019-02-02T15:43:26.066Z,18.93
2019-02-02T15:45:55.544Z,25.00
2019-02-02T15:48:26.477Z,29.50
2019-02-02T15:50:56.481Z,34.90
2019-02-02T15:53:26.199Z,22.97
2019-02-02T15:55:55.769Z,23.47
2019-02-02T15:58:27.880Z,26.07
2019-02-02T16:00:57.264Z,19.07
2019-02-02T16:03:28.140Z,17.90
2019-02-02T16:06:01.987Z,24.00
2019-02-02T16:08:32.378Z,31.73
2019-02-02T16:11:04.971Z,28.40
2019-02-02T16:13:37.726Z,46.40
2019-02-02T16:16:08.189Z,44.98
2019-02-02T16:18:38.860Z,42.10
2019-02-02T16:21:08.425Z,43.33
2019-02-02T16:23:38.346Z,39.20
2019-02-02T16:26:08.305Z,35.00
2019-02-02T16:28:38.098Z,33.17
2019-02-02T16:31:10.026Z,29.50
2019-02-02T16:33:39.493Z,33.90
2019-02-02T16:36:10.027Z,30.57
2019-02-02T16:38:39.989Z,33.80
2019-02-02T16:41:10.977Z,32.40
2019-02-02T16:43:40.312Z,25.87
2019-02-02T16:46:12.571Z,31.20
2019-02-02T16:48:43.829Z,34.90
2019-02-02T16:51:13.201Z,29.37
2019-02-02T16:53:42.624Z,32.70
2019-02-02T16:56:15.145Z,29.53
2019-02-02T16:58:45.118Z,38.30
2019-02-02T17:01:14.899Z,38.30
2019-02-02T17:03:45.214Z,40.90
2019-02-02T17:06:16.130Z,46.70
2019-02-02T17:08:45.513Z,44.07
2019-02-02T17:11:16.823Z,42.48
2019-02-02T17:13:46.196Z,40.67
2019-02-02T17:16:16.211Z,43.42
2019-02-02T17:18:46.443Z,44.13
2019-02-02T17:21:18.316Z,47.48
2019-02-02T17:23:47.939Z,52.03
2019-02-02T17:26:19.671Z,43.80
2019-02-02T17:28:49.591Z,42.03
2019-02-02T17:31:20.101Z,42.93
2019-02-02T17:33:49.548Z,46.90
2019-02-02T17:36:19.862Z,47.57
2019-02-02T17:38:49.536Z,46.00
2019-02-02T17:41:18.945Z,49.57
2019-02-02T17:43:49.124Z,49.47
2019-02-02T17:46:18.519Z,52.73
2019-02-02T17:48:48.696Z,48.70
2019-02-02T17:51:19.054Z,48.33
2019-02-02T17:53:48.465Z,47.33
2019-02-02T17:56:21.755Z,45.33
2019-02-02T17:58:53.902Z,45.23
2019-02-02T18:01:25.889Z,45.22
2019-02-02T18:03:56.318Z,46.57
2019-02-02T18:06:26.667Z,51.80
2019-02-02T18:08:56.689Z,51.53
2019-02-02T18:11:28.396Z,50.70
2019-02-02T18:13:57.889Z,51.80
2019-02-02T18:16:27.286Z,56.37
2019-02-02T18:18:58.263Z,54.77
2019-02-02T18:21:28.377Z,54.70
2019-02-02T18:23:58.815Z,60.40
2019-02-02T18:26:31.395Z,61.40
2019-02-02T18:29:00.857Z,68.33
2019-02-02T18:31:34.537Z,57.60
2019-02-02T18:34:05.297Z,55.77
2019-02-02T18:36:35.625Z,53.30
2019-02-02T18:39:08.515Z,64.33
2019-02-02T18:41:38.246Z,60.00
2019-02-02T18:44:07.811Z,65.47
2019-02-02T18:46:38.183Z,62.05
2019-02-02T18:49:09.419Z,63.07
2019-02-02T18:51:39.582Z,68.17
2019-02-02T18:54:09.652Z,70.73
2019-02-02T18:56:39.212Z,66.17
2019-02-02T18:59:13.235Z,70.33
2019-02-02T19:01:42.592Z,89.50
2019-02-02T19:04:12.365Z,100.27
2019-02-02T19:06:42.069Z,92.77
2019-02-02T19:09:11.548Z,87.90
2019-02-02T19:11:42.144Z,73.17
2019-02-02T19:14:12.058Z,71.20
2019-02-02T19:16:41.808Z,75.57
2019-02-02T19:19:11.297Z,71.28
2019-02-02T19:21:41.113Z,79.80
2019-02-02T19:24:10.514Z,79.93
2019-02-02T19:26:41.909Z,106.20
2019-02-02T19:29:14.887Z,78.23
2019-02-02T19:31:44.276Z,68.23
2019-02-02T19:34:14.149Z,76.63
2019-02-02T19:36:43.780Z,81.00
2019-02-02T19:39:13.780Z,77.53
2019-02-02T19:41:44.381Z,84.28
2019-02-02T19:44:13.765Z,83.47
2019-02-02T19:46:43.845Z,74.85
2019-02-02T19:49:14.037Z,85.57
2019-02-02T19:51:43.424Z,82.97
2019-02-02T19:54:13.140Z,128.03
2019-02-02T19:56:44.508Z,126.23
2019-02-02T19:59:13.605Z,126.03
2019-02-02T20:01:43.288Z,112.27
2019-02-02T20:04:13.113Z,293.53
2019-02-02T20:06:42.509Z,163.50
2019-02-02T20:09:12.196Z,200.30
2019-02-02T20:11:41.616Z,154.60
2019-02-02T20:14:11.095Z,145.77
2019-02-02T20:16:40.488Z,167.23
2019-02-02T20:19:09.908Z,155.00
2019-02-02T20:21:39.861Z,151.77
2019-02-02T20:24:09.216Z,239.13
2019-02-02T20:26:40.095Z,284.33
2019-02-02T20:29:09.980Z,385.33
2019-02-02T20:31:39.362Z,279.27
2019-02-02T20:34:10.429Z,295.60
2019-02-02T20:36:39.912Z,365.83
2019-02-02T20:39:09.744Z,375.83
2019-02-02T20:41:39.171Z,330.60
2019-02-02T20:44:09.040Z,282.97
2019-02-02T20:46:38.445Z,352.93
2019-02-02T20:49:08.312Z,333.30
2019-02-02T20:51:37.653Z,278.03
2019-02-02T20:54:07.410Z,234.57
2019-02-02T20:56:37.887Z,276.03
2019-02-02T20:59:09.913Z,194.90
2019-02-02T21:01:39.344Z,230.07
2019-02-02T21:04:09.584Z,229.97
2019-02-02T21:06:42.595Z,222.03
2019-02-02T21:09:12.381Z,233.47
2019-02-02T21:11:41.825Z,215.57
2019-02-02T21:14:11.224Z,193.93
2019-02-02T21:16:40.638Z,277.00
2019-02-02T21:19:10.809Z,209.20
2019-02-02T21:21:40.701Z,285.23
2019-02-02T21:24:10.772Z,188.70
2019-02-02T21:26:40.744Z,289.27
2019-02-02T21:29:11.073Z,210.65
2019-02-02T21:31:40.534Z,292.17
2019-02-02T21:34:09.969Z,202.53
2019-02-02T21:36:39.517Z,248.77
2019-02-02T21:39:11.054Z,158.77
2019-02-02T21:41:41.547Z,215.73
2019-02-02T21:44:11.472Z,208.60
2019-02-02T21:46:40.876Z,188.40
2019-02-02T21:49:10.309Z,132.50
2019-02-02T21:51:39.837Z,261.33
2019-02-02T21:54:11.240Z,236.80
2019-02-02T21:56:41.097Z,325.53
2019-02-02T21:59:10.481Z,242.37
2019-02-02T22:01:39.869Z,301.53
2019-02-02T22:04:10.405Z,349.63
2019-02-02T22:06:39.944Z,295.23
2019-02-02T22:09:10.073Z,382.17
2019-02-02T22:11:39.504Z,155.60
2019-02-02T22:14:11.145Z,202.67
2019-02-02T22:16:40.622Z,263.10
2019-02-02T22:19:12.756Z,350.87
2019-02-02T22:21:42.709Z,199.35
2019-02-02T22:24:12.067Z,375.82
2019-02-02T22:26:42.215Z,398.03
2019-02-02T22:29:11.533Z,405.00
2019-02-02T22:31:41.774Z,398.63
2019-02-02T22:34:11.293Z,438.83
2019-02-02T22:36:42.261Z,423.73
2019-02-02T22:39:12.071Z,453.40
2019-02-02T22:41:42.044Z,392.27
2019-02-02T22:44:11.975Z,433.10
2019-02-02T22:46:41.427Z,493.23
2019-02-02T22:49:11.150Z,496.63
2019-02-02T22:51:41.220Z,602.40
2019-02-02T22:54:10.603Z,558.50
2019-02-02T22:56:40.267Z,681.23
2019-02-02T22:59:09.863Z,594.93
2019-02-02T23:01:42.304Z,597.60
2019-02-02T23:04:53.388Z,590.80
2019-02-02T23:07:55.912Z,626.30
2019-02-02T23:11:13.647Z,522.93
2019-02-02T23:14:17.231Z,672.27
2019-02-02T23:16:47.092Z,593.70
2019-02-02T23:19:17.177Z,621.12
2019-02-02T23:21:46.625Z,515.97
2019-02-02T23:24:17.631Z,805.57
2019-02-02T23:26:47.101Z,659.45
2019-02-02T23:29:18.393Z,582.58
2019-02-02T23:31:47.968Z,445.50
2019-02-02T23:34:18.095Z,481.10
2019-02-02T23:36:51.397Z,485.90
2019-02-02T23:39:19.973Z,513.10
2019-02-02T23:41:49.366Z,497.23
2019-02-02T23:44:19.020Z,313.90
2019-02-02T23:46:48.608Z,227.73
2019-02-02T23:49:18.093Z,287.17
2019-02-02T23:51:47.548Z,285.10
2019-02-02T23:54:17.226Z,299.77
2019-02-02T23:56:46.708Z,322.47
2019-02-02T23:59:17.133Z,375.45
